createdAt,value
2019-02-06T00:03:40.556Z,92.70
2019-02-06T00:08:48.322Z,92.60
2019-02-06T00:13:54.768Z,92.60
2019-02-06T00:19:01.151Z,92.80
2019-02-06T00:24:07.503Z,92.80
2019-02-06T00:29:14.144Z,92.70
2019-02-06T00:34:20.514Z,92.80
2019-02-06T00:39:26.819Z,92.60
2019-02-06T00:44:33.191Z,92.50
2019-02-06T00:49:39.462Z,92.40
2019-02-06T00:54:46.165Z,92.30
2019-02-06T00:59:52.962Z,92.40
2019-02-06T01:04:59.265Z,92.30
2019-02-06T01:10:06.858Z,92.00
2019-02-06T01:15:13.589Z,91.90
2019-02-06T01:20:20.001Z,92.20
2019-02-06T01:25:27.392Z,92.10
2019-02-06T01:30:44.575Z,92.10
2019-02-06T01:35:50.862Z,92.00
2019-02-06T01:40:58.724Z,91.80
2019-02-06T01:46:05.593Z,91.90
2019-02-06T01:51:11.983Z,91.60
2019-02-06T01:56:20.694Z,91.80
2019-02-06T02:01:27.015Z,91.90
2019-02-06T02:06:33.312Z,91.70
2019-02-06T02:11:39.776Z,91.60
2019-02-06T02:16:46.184Z,91.20
2019-02-06T02:21:52.727Z,91.10
2019-02-06T02:27:00.650Z,90.90
2019-02-06T02:32:06.915Z,90.60
2019-02-06T02:37:14.528Z,90.70
2019-02-06T02:42:21.237Z,90.70
2019-02-06T02:47:27.636Z,90.20
2019-02-06T02:52:34.267Z,89.40
2019-02-06T02:57:40.929Z,89.40
2019-02-06T03:02:59.984Z,89.80
2019-02-06T03:08:06.296Z,89.10
2019-02-06T03:13:12.556Z,88.80
2019-02-06T03:18:18.872Z,89.50
2019-02-06T03:23:25.690Z,88.10
2019-02-06T03:28:31.971Z,87.40
2019-02-06T03:33:38.555Z,87.40
2019-02-06T03:38:45.110Z,86.30
2019-02-06T03:43:51.474Z,86.50
2019-02-06T03:48:57.768Z,86.10
2019-02-06T03:54:04.780Z,86.10
2019-02-06T03:59:11.104Z,86.70
2019-02-06T04:04:17.361Z,85.00
2019-02-06T04:09:23.788Z,84.90
2019-02-06T04:14:30.114Z,84.90
2019-02-06T04:19:36.474Z,83.10
2019-02-06T04:24:45.116Z,82.50
2019-02-06T04:29:51.513Z,82.60
2019-02-06T04:34:57.925Z,83.00
2019-02-06T04:40:05.083Z,82.50
2019-02-06T04:45:12.118Z,83.50
2019-02-06T04:50:18.733Z,82.70
2019-02-06T04:55:25.050Z,81.80
2019-02-06T05:00:31.342Z,81.50
2019-02-06T05:05:37.594Z,81.40
2019-02-06T05:10:45.532Z,82.00
2019-02-06T05:15:51.822Z,82.10
2019-02-06T05:20:58.289Z,81.80
2019-02-06T05:26:05.537Z,82.00
2019-02-06T05:31:12.263Z,80.40
2019-02-06T05:36:18.644Z,80.90
2019-02-06T05:41:24.973Z,80.60
2019-02-06T05:46:31.952Z,79.70
2019-02-06T05:51:38.264Z,79.20
2019-02-06T05:56:44.653Z,79.30
2019-02-06T06:01:51.257Z,79.40
2019-02-06T06:06:59.387Z,79.10
2019-02-06T06:12:05.717Z,79.60
2019-02-06T06:17:12.233Z,79.40
2019-02-06T06:22:18.926Z,80.40
2019-02-06T06:27:25.289Z,81.30
2019-02-06T06:32:32.098Z,80.40
2019-02-06T06:37:41.374Z,80.50
2019-02-06T06:42:46.718Z,79.80
2019-02-06T06:47:53.469Z,80.30
2019-02-06T06:52:59.806Z,80.20
2019-02-06T06:58:06.345Z,80.70
2019-02-06T07:03:12.705Z,80.80
2019-02-06T07:08:19.065Z,80.80
2019-02-06T07:13:25.361Z,81.40
2019-02-06T07:18:31.662Z,81.70
2019-02-06T07:23:37.969Z,82.00
2019-02-06T07:28:45.479Z,82.40
2019-02-06T07:33:51.935Z,82.20
2019-02-06T07:38:58.240Z,81.90
2019-02-06T07:44:05.703Z,82.10
2019-02-06T07:49:12.063Z,81.90
2019-02-06T07:54:18.277Z,81.40
2019-02-06T07:59:24.574Z,82.50
2019-02-06T08:04:30.876Z,82.70
2019-02-06T08:09:37.207Z,81.90
2019-02-06T08:14:43.579Z,82.30
2019-02-06T08:19:49.917Z,81.70
2019-02-06T08:24:56.327Z,80.50
2019-02-06T08:30:02.717Z,80.60
2019-02-06T08:35:09.809Z,79.90
2019-02-06T08:40:17.057Z,80.10
2019-02-06T08:45:23.829Z,80.40
2019-02-06T08:50:30.368Z,79.80
2019-02-06T08:55:36.663Z,79.80
2019-02-06T09:00:42.935Z,79.70
2019-02-06T09:05:49.509Z,78.10
2019-02-06T09:10:55.888Z,78.80
2019-02-06T09:16:02.155Z,77.40
2019-02-06T09:21:08.467Z,78.20
2019-02-06T09:26:14.795Z,77.70
2019-02-06T09:31:21.395Z,79.40
2019-02-06T09:36:27.739Z,78.10
2019-02-06T09:41:35.852Z,78.10
2019-02-06T09:46:42.177Z,76.70
2019-02-06T09:51:48.936Z,76.90
2019-02-06T09:56:55.767Z,77.00
2019-02-06T10:02:02.188Z,78.40
2019-02-06T10:07:08.579Z,76.80
2019-02-06T10:12:14.934Z,76.10
2019-02-06T10:17:22.274Z,76.50
2019-02-06T10:22:28.829Z,76.60
2019-02-06T10:27:35.679Z,77.40
2019-02-06T10:32:42.285Z,76.30
2019-02-06T10:37:49.619Z,76.60
2019-02-06T10:42:56.080Z,76.90
2019-02-06T10:48:02.352Z,77.00
2019-02-06T10:53:09.089Z,77.40
2019-02-06T10:58:15.479Z,78.30
2019-02-06T11:03:21.744Z,77.10
2019-02-06T11:08:28.076Z,77.20
2019-02-06T11:13:34.678Z,77.50
2019-02-06T11:18:40.963Z,77.70
2019-02-06T11:23:47.321Z,77.60
2019-02-06T11:28:53.886Z,77.90
2019-02-06T11:34:00.138Z,76.60
2019-02-06T11:39:15.965Z,77.20
2019-02-06T11:44:24.495Z,76.10
2019-02-06T11:49:37.357Z,76.20
2019-02-06T11:54:43.668Z,75.70
2019-02-06T11:59:52.947Z,75.00
2019-02-06T12:04:58.031Z,75.00
2019-02-06T12:10:10.060Z,76.20
2019-02-06T12:15:16.737Z,76.70
2019-02-06T12:20:23.293Z,76.50
2019-02-06T12:25:29.854Z,77.00
2019-02-06T12:30:36.805Z,78.10
2019-02-06T12:35:43.331Z,77.50
2019-02-06T12:40:49.903Z,77.90
2019-02-06T12:45:56.246Z,78.00
2019-02-06T12:51:02.590Z,78.50
2019-02-06T12:56:08.901Z,78.60
2019-02-06T13:01:15.224Z,78.40
2019-02-06T13:06:22.011Z,78.60
2019-02-06T13:11:28.400Z,78.70
2019-02-06T13:16:34.739Z,78.90
2019-02-06T13:21:42.572Z,79.30
2019-02-06T13:26:50.514Z,79.60
2019-02-06T13:31:57.256Z,79.70
2019-02-06T13:37:03.559Z,80.20
2019-02-06T13:42:09.867Z,81.20
2019-02-06T13:47:16.504Z,81.20
2019-02-06T13:52:22.815Z,82.20
2019-02-06T13:57:33.858Z,82.10
2019-02-06T14:02:38.499Z,82.60
2019-02-06T14:07:45.096Z,83.30
2019-02-06T14:12:53.224Z,83.40
2019-02-06T14:18:00.043Z,84.20
2019-02-06T14:23:12.203Z,85.00
2019-02-06T14:28:58.520Z,85.60
2019-02-06T14:34:42.411Z,86.30
2019-02-06T14:40:13.721Z,86.90
2019-02-06T14:45:52.712Z,86.90
2019-02-06T14:51:31.140Z,87.10
2019-02-06T14:57:03.899Z,87.10
2019-02-06T15:02:47.783Z,87.60
2019-02-06T15:08:10.557Z,87.30
2019-02-06T15:13:41.300Z,87.30
2019-02-06T15:19:24.427Z,87.80
2019-02-06T15:25:09.486Z,87.70
2019-02-06T15:30:58.877Z,87.80
2019-02-06T15:36:24.808Z,88.10
2019-02-06T15:41:53.478Z,88.60
2019-02-06T15:47:37.865Z,88.40
2019-02-06T15:53:27.811Z,88.50
2019-02-06T15:59:12.407Z,88.90
2019-02-06T16:05:17.902Z,89.90
2019-02-06T16:10:50.255Z,89.20
2019-02-06T16:16:16.127Z,89.20
2019-02-06T16:21:53.157Z,88.90
2019-02-06T16:27:33.175Z,88.30
2019-02-06T16:33:25.143Z,88.30
2019-02-06T16:38:47.565Z,88.30
2019-02-06T16:44:30.932Z,88.40
2019-02-06T16:50:24.260Z,88.50
2019-02-06T16:56:08.000Z,88.50
2019-02-06T17:01:38.420Z,88.60
2019-02-06T17:07:19.185Z,88.90
2019-02-06T17:13:02.507Z,88.50
2019-02-06T17:18:56.150Z,88.80
2019-02-06T17:24:55.482Z,89.10
2019-02-06T17:30:55.431Z,89.00
2019-02-06T17:36:31.373Z,89.30
2019-02-06T17:42:20.832Z,89.70
2019-02-06T17:48:17.334Z,90.00
2019-02-06T17:54:10.826Z,90.10
2019-02-06T17:59:17.236Z,90.50
2019-02-06T18:04:26.827Z,90.80
2019-02-06T18:09:33.528Z,91.10
2019-02-06T18:14:39.846Z,91.10
2019-02-06T18:19:47.322Z,90.90
2019-02-06T18:24:53.778Z,91.10
2019-02-06T18:30:00.238Z,91.10
2019-02-06T18:35:07.255Z,91.10
2019-02-06T18:40:13.950Z,91.10
2019-02-06T18:45:20.905Z,91.20
2019-02-06T18:50:28.079Z,92.20
2019-02-06T18:55:34.443Z,92.10
2019-02-06T19:00:41.052Z,92.60
2019-02-06T19:05:47.585Z,93.00
2019-02-06T19:10:53.895Z,93.50
2019-02-06T19:16:00.326Z,93.30
2019-02-06T19:21:07.047Z,93.60
2019-02-06T19:26:13.791Z,93.30
2019-02-06T19:31:20.148Z,93.40
2019-02-06T19:36:26.476Z,93.60
2019-02-06T19:41:32.847Z,93.90
2019-02-06T19:46:39.205Z,93.80
2019-02-06T19:51:45.863Z,93.80
2019-02-06T19:56:52.282Z,94.00
2019-02-06T20:01:58.673Z,94.60
2019-02-06T20:07:05.924Z,94.80
2019-02-06T20:12:12.214Z,95.50
2019-02-06T20:17:19.051Z,95.40
2019-02-06T20:22:25.410Z,95.70
2019-02-06T20:27:31.842Z,95.90
2019-02-06T20:32:38.229Z,96.10
2019-02-06T20:37:44.948Z,95.90
2019-02-06T20:42:51.616Z,95.90
2019-02-06T20:47:58.853Z,95.80
2019-02-06T20:53:06.451Z,95.90
2019-02-06T20:58:12.767Z,96.40
2019-02-06T21:03:19.106Z,96.20
2019-02-06T21:08:25.537Z,96.00
2019-02-06T21:13:33.699Z,96.00
2019-02-06T21:18:39.825Z,96.00
2019-02-06T21:23:46.245Z,96.00
2019-02-06T21:28:52.593Z,96.00
2019-02-06T21:33:58.896Z,95.60
2019-02-06T21:39:09.330Z,95.60
2019-02-06T21:44:15.895Z,95.60
2019-02-06T21:49:22.229Z,96.00
2019-02-06T21:54:28.548Z,95.70
2019-02-06T21:59:35.952Z,95.60
2019-02-06T22:04:42.818Z,95.80
2019-02-06T22:09:49.185Z,95.60
2019-02-06T22:14:55.705Z,95.70
2019-02-06T22:20:01.996Z,96.00
2019-02-06T22:25:08.562Z,96.00
2019-02-06T22:30:17.599Z,96.20
2019-02-06T22:35:24.297Z,96.30
2019-02-06T22:40:30.617Z,96.40
2019-02-06T22:45:38.010Z,96.40
2019-02-06T22:50:44.325Z,96.60
2019-02-06T22:55:50.649Z,96.50
2019-02-06T23:01:17.836Z,96.50
2019-02-06T23:06:24.197Z,96.70
2019-02-06T23:11:30.562Z,97.00
2019-02-06T23:16:36.875Z,97.20
2019-02-06T23:21:44.584Z,97.10
2019-02-06T23:26:51.115Z,97.20
2019-02-06T23:31:57.800Z,97.40
2019-02-06T23:37:04.307Z,97.40
2019-02-06T23:42:10.609Z,97.60
2019-02-06T23:47:16.991Z,97.70
2019-02-06T23:52:23.284Z,97.50
2019-02-06T23:57:29.814Z,97.70
